sensor_id;sensor_type;location;lat;lon;timestamp;P1;durP1;ratioP1;P2;durP2;ratioP2
56893;SDS011;43392;50.078;13.704;2022-10-22T00:00:55;82.32;;;39.25;;
56893;SDS011;43392;50.078;13.704;2022-10-22T00:03:21;79.40;;;40.38;;
56893;SDS011;43392;50.078;13.704;2022-10-22T00:05:48;120.40;;;49.75;;
56893;SDS011;43392;50.078;13.704;2022-10-22T00:08:15;96.88;;;46.67;;
56893;SDS011;43392;50.078;13.704;2022-10-22T00:10:41;114.75;;;50.75;;
56893;SDS011;43392;50.078;13.704;2022-10-22T00:13:08;129.73;;;56.30;;
56893;SDS011;43392;50.078;13.704;2022-10-22T00:15:37;201.50;;;69.68;;
56893;SDS011;43392;50.078;13.704;2022-10-22T00:18:04;129.00;;;54.03;;
56893;SDS011;43392;50.078;13.704;2022-10-22T00:20:30;100.65;;;50.40;;
56893;SDS011;43392;50.078;13.704;2022-10-22T00:22:57;107.85;;;50.88;;
56893;SDS011;43392;50.078;13.704;2022-10-22T00:25:24;95.22;;;46.65;;
56893;SDS011;43392;50.078;13.704;2022-10-22T00:27:50;92.13;;;46.42;;
56893;SDS011;43392;50.078;13.704;2022-10-22T00:30:17;101.72;;;49.67;;
56893;SDS011;43392;50.078;13.704;2022-10-22T00:32:45;95.82;;;46.65;;
56893;SDS011;43392;50.078;13.704;2022-10-22T00:35:12;96.97;;;46.22;;
56893;SDS011;43392;50.078;13.704;2022-10-22T00:37:38;87.15;;;45.22;;
56893;SDS011;43392;50.078;13.704;2022-10-22T00:40:05;80.97;;;43.42;;
56893;SDS011;43392;50.078;13.704;2022-10-22T00:42:33;87.03;;;43.45;;
56893;SDS011;43392;50.078;13.704;2022-10-22T00:45:02;73.53;;;39.47;;
56893;SDS011;43392;50.078;13.704;2022-10-22T00:47:33;66.63;;;37.10;;
56893;SDS011;43392;50.078;13.704;2022-10-22T00:50:05;63.67;;;37.83;;
56893;SDS011;43392;50.078;13.704;2022-10-22T00:52:36;68.03;;;38.08;;
56893;SDS011;43392;50.078;13.704;2022-10-22T00:55:03;62.67;;;38.13;;
56893;SDS011;43392;50.078;13.704;2022-10-22T00:57:31;68.28;;;38.33;;
56893;SDS011;43392;50.078;13.704;2022-10-22T01:00:00;56.63;;;34.60;;
56893;SDS011;43392;50.078;13.704;2022-10-22T01:02:27;60.03;;;34.72;;
56893;SDS011;43392;50.078;13.704;2022-10-22T01:04:53;61.97;;;33.50;;
56893;SDS011;43392;50.078;13.704;2022-10-22T01:07:21;53.47;;;31.75;;
56893;SDS011;43392;50.078;13.704;2022-10-22T01:09:52;52.97;;;30.75;;
56893;SDS011;43392;50.078;13.704;2022-10-22T01:12:30;52.60;;;29.30;;
56893;SDS011;43392;50.078;13.704;2022-10-22T01:15:06;49.65;;;30.17;;
56893;SDS011;43392;50.078;13.704;2022-10-22T01:17:43;47.42;;;28.17;;
56893;SDS011;43392;50.078;13.704;2022-10-22T01:20:20;50.40;;;29.92;;
56893;SDS011;43392;50.078;13.704;2022-10-22T01:23:07;54.60;;;30.55;;
56893;SDS011;43392;50.078;13.704;2022-10-22T01:25:46;57.15;;;34.28;;
56893;SDS011;43392;50.078;13.704;2022-10-22T01:28:20;56.65;;;31.60;;
56893;SDS011;43392;50.078;13.704;2022-10-22T01:30:54;57.92;;;32.10;;
56893;SDS011;43392;50.078;13.704;2022-10-22T01:33:23;54.00;;;31.45;;
56893;SDS011;43392;50.078;13.704;2022-10-22T01:35:51;51.28;;;30.23;;
56893;SDS011;43392;50.078;13.704;2022-10-22T01:38:19;47.97;;;30.10;;
56893;SDS011;43392;50.078;13.704;2022-10-22T01:40:48;54.17;;;31.80;;
56893;SDS011;43392;50.078;13.704;2022-10-22T01:43:16;47.13;;;28.42;;
56893;SDS011;43392;50.078;13.704;2022-10-22T01:45:44;50.13;;;29.17;;
56893;SDS011;43392;50.078;13.704;2022-10-22T01:48:19;47.95;;;28.70;;
56893;SDS011;43392;50.078;13.704;2022-10-22T01:50:59;50.38;;;30.05;;
56893;SDS011;43392;50.078;13.704;2022-10-22T01:53:35;52.88;;;30.10;;
56893;SDS011;43392;50.078;13.704;2022-10-22T01:56:13;49.97;;;30.48;;
56893;SDS011;43392;50.078;13.704;2022-10-22T01:58:52;50.97;;;29.00;;
56893;SDS011;43392;50.078;13.704;2022-10-22T02:01:28;57.42;;;31.90;;
56893;SDS011;43392;50.078;13.704;2022-10-22T02:04:06;51.53;;;30.45;;
56893;SDS011;43392;50.078;13.704;2022-10-22T02:06:40;51.75;;;30.42;;
56893;SDS011;43392;50.078;13.704;2022-10-22T02:09:10;62.60;;;32.77;;
56893;SDS011;43392;50.078;13.704;2022-10-22T02:11:41;49.53;;;29.38;;
56893;SDS011;43392;50.078;13.704;2022-10-22T02:14:09;50.97;;;31.38;;
56893;SDS011;43392;50.078;13.704;2022-10-22T02:16:38;52.95;;;31.33;;
56893;SDS011;43392;50.078;13.704;2022-10-22T02:19:12;52.70;;;32.80;;
56893;SDS011;43392;50.078;13.704;2022-10-22T02:21:43;50.08;;;30.88;;
56893;SDS011;43392;50.078;13.704;2022-10-22T02:24:10;53.47;;;32.67;;
56893;SDS011;43392;50.078;13.704;2022-10-22T02:26:38;52.97;;;31.27;;
56893;SDS011;43392;50.078;13.704;2022-10-22T02:29:08;55.83;;;32.72;;
56893;SDS011;43392;50.078;13.704;2022-10-22T02:31:39;53.00;;;31.45;;
56893;SDS011;43392;50.078;13.704;2022-10-22T02:34:12;56.45;;;31.98;;
56893;SDS011;43392;50.078;13.704;2022-10-22T02:36:44;56.58;;;32.35;;
56893;SDS011;43392;50.078;13.704;2022-10-22T02:39:12;55.65;;;30.83;;
56893;SDS011;43392;50.078;13.704;2022-10-22T02:41:40;52.88;;;29.75;;
56893;SDS011;43392;50.078;13.704;2022-10-22T02:44:08;52.00;;;29.52;;
56893;SDS011;43392;50.078;13.704;2022-10-22T02:46:35;53.70;;;32.15;;
56893;SDS011;43392;50.078;13.704;2022-10-22T02:49:02;55.83;;;32.25;;
56893;SDS011;43392;50.078;13.704;2022-10-22T02:51:30;57.63;;;33.72;;
56893;SDS011;43392;50.078;13.704;2022-10-22T02:53:57;54.75;;;32.50;;
56893;SDS011;43392;50.078;13.704;2022-10-22T02:56:24;58.95;;;31.85;;
56893;SDS011;43392;50.078;13.704;2022-10-22T02:58:51;61.30;;;33.28;;
56893;SDS011;43392;50.078;13.704;2022-10-22T03:01:18;226.27;;;43.28;;
56893;SDS011;43392;50.078;13.704;2022-10-22T03:03:44;199.43;;;43.83;;
56893;SDS011;43392;50.078;13.704;2022-10-22T03:06:11;88.32;;;35.03;;
56893;SDS011;43392;50.078;13.704;2022-10-22T03:08:39;340.27;;;49.45;;
56893;SDS011;43392;50.078;13.704;2022-10-22T03:11:06;152.18;;;39.60;;
56893;SDS011;43392;50.078;13.704;2022-10-22T03:13:33;141.45;;;36.92;;
56893;SDS011;43392;50.078;13.704;2022-10-22T03:15:59;85.82;;;37.40;;
56893;SDS011;43392;50.078;13.704;2022-10-22T03:18:26;72.32;;;36.33;;
56893;SDS011;43392;50.078;13.704;2022-10-22T03:20:58;76.85;;;36.60;;
56893;SDS011;43392;50.078;13.704;2022-10-22T03:23:29;71.70;;;35.70;;
56893;SDS011;43392;50.078;13.704;2022-10-22T03:25:58;176.98;;;46.53;;
56893;SDS011;43392;50.078;13.704;2022-10-22T03:28:25;115.47;;;37.92;;
56893;SDS011;43392;50.078;13.704;2022-10-22T03:30:52;84.60;;;38.38;;
56893;SDS011;43392;50.078;13.704;2022-10-22T03:33:18;75.07;;;35.97;;
56893;SDS011;43392;50.078;13.704;2022-10-22T03:35:45;77.28;;;37.25;;
56893;SDS011;43392;50.078;13.704;2022-10-22T03:38:12;77.65;;;37.17;;
56893;SDS011;43392;50.078;13.704;2022-10-22T03:40:40;71.05;;;34.38;;
56893;SDS011;43392;50.078;13.704;2022-10-22T03:43:10;72.35;;;36.30;;
56893;SDS011;43392;50.078;13.704;2022-10-22T03:45:37;76.45;;;37.85;;
56893;SDS011;43392;50.078;13.704;2022-10-22T03:48:04;79.65;;;39.30;;
56893;SDS011;43392;50.078;13.704;2022-10-22T03:50:31;68.32;;;36.00;;
56893;SDS011;43392;50.078;13.704;2022-10-22T03:52:57;69.88;;;35.30;;
56893;SDS011;43392;50.078;13.704;2022-10-22T03:55:24;70.45;;;34.95;;
56893;SDS011;43392;50.078;13.704;2022-10-22T03:57:51;66.45;;;35.13;;
56893;SDS011;43392;50.078;13.704;2022-10-22T04:00:19;73.28;;;37.25;;
56893;SDS011;43392;50.078;13.704;2022-10-22T04:02:45;77.80;;;37.25;;
56893;SDS011;43392;50.078;13.704;2022-10-22T04:05:12;67.50;;;34.97;;
56893;SDS011;43392;50.078;13.704;2022-10-22T04:07:38;70.55;;;34.97;;
56893;SDS011;43392;50.078;13.704;2022-10-22T04:10:05;62.75;;;33.35;;
56893;SDS011;43392;50.078;13.704;2022-10-22T04:12:32;66.80;;;33.92;;
56893;SDS011;43392;50.078;13.704;2022-10-22T04:14:59;61.50;;;33.33;;
56893;SDS011;43392;50.078;13.704;2022-10-22T04:17:27;66.32;;;33.47;;
56893;SDS011;43392;50.078;13.704;2022-10-22T04:19:59;61.22;;;32.38;;
56893;SDS011;43392;50.078;13.704;2022-10-22T04:22:25;62.90;;;33.63;;
56893;SDS011;43392;50.078;13.704;2022-10-22T04:24:52;66.75;;;32.97;;
56893;SDS011;43392;50.078;13.704;2022-10-22T04:27:18;66.97;;;35.08;;
56893;SDS011;43392;50.078;13.704;2022-10-22T04:29:45;69.25;;;35.50;;
56893;SDS011;43392;50.078;13.704;2022-10-22T04:32:12;63.97;;;35.00;;
56893;SDS011;43392;50.078;13.704;2022-10-22T04:34:39;88.53;;;47.58;;
56893;SDS011;43392;50.078;13.704;2022-10-22T04:37:06;61.25;;;32.42;;
56893;SDS011;43392;50.078;13.704;2022-10-22T04:39:33;59.03;;;31.90;;
56893;SDS011;43392;50.078;13.704;2022-10-22T04:41:59;65.00;;;34.10;;
56893;SDS011;43392;50.078;13.704;2022-10-22T04:44:26;58.70;;;32.35;;
56893;SDS011;43392;50.078;13.704;2022-10-22T04:46:52;66.82;;;34.38;;
56893;SDS011;43392;50.078;13.704;2022-10-22T04:49:19;59.08;;;32.83;;
56893;SDS011;43392;50.078;13.704;2022-10-22T04:51:47;65.70;;;34.22;;
56893;SDS011;43392;50.078;13.704;2022-10-22T04:54:14;64.03;;;34.22;;
56893;SDS011;43392;50.078;13.704;2022-10-22T04:56:41;64.18;;;34.53;;
56893;SDS011;43392;50.078;13.704;2022-10-22T04:59:07;59.33;;;31.95;;
56893;SDS011;43392;50.078;13.704;2022-10-22T05:01:37;62.70;;;33.70;;
56893;SDS011;43392;50.078;13.704;2022-10-22T05:04:05;65.72;;;35.17;;
56893;SDS011;43392;50.078;13.704;2022-10-22T05:06:33;65.45;;;34.10;;
56893;SDS011;43392;50.078;13.704;2022-10-22T05:09:03;64.97;;;35.30;;
56893;SDS011;43392;50.078;13.704;2022-10-22T05:11:31;63.53;;;32.20;;
56893;SDS011;43392;50.078;13.704;2022-10-22T05:13:59;70.68;;;35.38;;
56893;SDS011;43392;50.078;13.704;2022-10-22T05:16:28;65.30;;;33.50;;
56893;SDS011;43392;50.078;13.704;2022-10-22T05:18:56;62.40;;;32.90;;
56893;SDS011;43392;50.078;13.704;2022-10-22T05:21:24;59.95;;;32.38;;
56893;SDS011;43392;50.078;13.704;2022-10-22T05:23:51;63.53;;;33.17;;
56893;SDS011;43392;50.078;13.704;2022-10-22T05:26:21;63.97;;;33.60;;
56893;SDS011;43392;50.078;13.704;2022-10-22T05:28:49;63.37;;;33.07;;
56893;SDS011;43392;50.078;13.704;2022-10-22T05:31:16;64.50;;;33.92;;
56893;SDS011;43392;50.078;13.704;2022-10-22T05:33:44;58.15;;;31.67;;
56893;SDS011;43392;50.078;13.704;2022-10-22T05:36:11;62.80;;;32.72;;
56893;SDS011;43392;50.078;13.704;2022-10-22T05:38:39;62.42;;;33.55;;
56893;SDS011;43392;50.078;13.704;2022-10-22T05:41:07;55.85;;;31.40;;
56893;SDS011;43392;50.078;13.704;2022-10-22T05:43:36;59.75;;;32.65;;
56893;SDS011;43392;50.078;13.704;2022-10-22T05:46:05;57.40;;;31.85;;
56893;SDS011;43392;50.078;13.704;2022-10-22T05:48:32;66.40;;;32.88;;
56893;SDS011;43392;50.078;13.704;2022-10-22T05:51:00;61.35;;;32.22;;
56893;SDS011;43392;50.078;13.704;2022-10-22T05:53:28;66.63;;;34.85;;
56893;SDS011;43392;50.078;13.704;2022-10-22T05:55:58;62.58;;;32.72;;
56893;SDS011;43392;50.078;13.704;2022-10-22T05:58:25;65.40;;;34.08;;
56893;SDS011;43392;50.078;13.704;2022-10-22T06:00:53;63.00;;;33.75;;
56893;SDS011;43392;50.078;13.704;2022-10-22T06:03:20;62.20;;;33.65;;
56893;SDS011;43392;50.078;13.704;2022-10-22T06:05:46;67.57;;;34.08;;
56893;SDS011;43392;50.078;13.704;2022-10-22T06:08:13;66.72;;;34.33;;
56893;SDS011;43392;50.078;13.704;2022-10-22T06:10:40;65.05;;;35.58;;
56893;SDS011;43392;50.078;13.704;2022-10-22T06:13:08;63.90;;;34.28;;
56893;SDS011;43392;50.078;13.704;2022-10-22T06:15:35;78.43;;;37.65;;
56893;SDS011;43392;50.078;13.704;2022-10-22T06:18:03;67.32;;;36.22;;
56893;SDS011;43392;50.078;13.704;2022-10-22T06:20:29;70.13;;;37.78;;
56893;SDS011;43392;50.078;13.704;2022-10-22T06:22:58;72.40;;;39.90;;
56893;SDS011;43392;50.078;13.704;2022-10-22T06:25:25;81.57;;;44.80;;
56893;SDS011;43392;50.078;13.704;2022-10-22T06:27:51;81.70;;;42.65;;
56893;SDS011;43392;50.078;13.704;2022-10-22T06:30:18;72.03;;;38.38;;
56893;SDS011;43392;50.078;13.704;2022-10-22T06:32:45;75.03;;;39.00;;
56893;SDS011;43392;50.078;13.704;2022-10-22T06:35:13;59.75;;;33.75;;
56893;SDS011;43392;50.078;13.704;2022-10-22T06:37:39;62.53;;;34.45;;
56893;SDS011;43392;50.078;13.704;2022-10-22T06:40:06;59.20;;;33.05;;
56893;SDS011;43392;50.078;13.704;2022-10-22T06:42:35;64.47;;;34.00;;
56893;SDS011;43392;50.078;13.704;2022-10-22T06:45:01;58.45;;;33.00;;
56893;SDS011;43392;50.078;13.704;2022-10-22T06:47:28;62.25;;;34.63;;
56893;SDS011;43392;50.078;13.704;2022-10-22T06:49:57;76.30;;;38.72;;
56893;SDS011;43392;50.078;13.704;2022-10-22T06:52:25;80.65;;;42.95;;
56893;SDS011;43392;50.078;13.704;2022-10-22T06:54:52;74.40;;;38.75;;
56893;SDS011;43392;50.078;13.704;2022-10-22T06:57:18;63.30;;;36.03;;
56893;SDS011;43392;50.078;13.704;2022-10-22T06:59:45;65.75;;;35.97;;
56893;SDS011;43392;50.078;13.704;2022-10-22T07:02:11;58.97;;;34.67;;
56893;SDS011;43392;50.078;13.704;2022-10-22T07:04:38;77.82;;;39.95;;
56893;SDS011;43392;50.078;13.704;2022-10-22T07:07:04;73.80;;;39.42;;
56893;SDS011;43392;50.078;13.704;2022-10-22T07:09:32;62.80;;;35.83;;
56893;SDS011;43392;50.078;13.704;2022-10-22T07:11:59;64.20;;;34.05;;
56893;SDS011;43392;50.078;13.704;2022-10-22T07:14:26;51.97;;;31.02;;
56893;SDS011;43392;50.078;13.704;2022-10-22T07:16:52;57.40;;;32.20;;
56893;SDS011;43392;50.078;13.704;2022-10-22T07:19:19;69.32;;;36.95;;
56893;SDS011;43392;50.078;13.704;2022-10-22T07:21:45;72.15;;;37.20;;
56893;SDS011;43392;50.078;13.704;2022-10-22T07:24:12;70.07;;;38.55;;
56893;SDS011;43392;50.078;13.704;2022-10-22T07:26:40;68.50;;;38.47;;
56893;SDS011;43392;50.078;13.704;2022-10-22T07:29:06;66.45;;;36.50;;
56893;SDS011;43392;50.078;13.704;2022-10-22T07:31:34;61.13;;;36.97;;
56893;SDS011;43392;50.078;13.704;2022-10-22T07:34:00;71.10;;;40.72;;
56893;SDS011;43392;50.078;13.704;2022-10-22T07:36:27;70.50;;;42.03;;
56893;SDS011;43392;50.078;13.704;2022-10-22T07:38:54;91.40;;;56.55;;
56893;SDS011;43392;50.078;13.704;2022-10-22T07:41:22;72.28;;;43.70;;
56893;SDS011;43392;50.078;13.704;2022-10-22T07:43:51;65.65;;;38.60;;
56893;SDS011;43392;50.078;13.704;2022-10-22T07:46:18;61.25;;;35.70;;
56893;SDS011;43392;50.078;13.704;2022-10-22T07:48:44;56.63;;;33.50;;
56893;SDS011;43392;50.078;13.704;2022-10-22T07:51:11;59.78;;;35.58;;
56893;SDS011;43392;50.078;13.704;2022-10-22T07:53:38;54.38;;;33.20;;
56893;SDS011;43392;50.078;13.704;2022-10-22T07:56:05;62.97;;;36.83;;
56893;SDS011;43392;50.078;13.704;2022-10-22T07:58:32;64.78;;;35.97;;
56893;SDS011;43392;50.078;13.704;2022-10-22T08:01:01;61.40;;;36.33;;
56893;SDS011;43392;50.078;13.704;2022-10-22T08:03:29;72.28;;;49.20;;
56893;SDS011;43392;50.078;13.704;2022-10-22T08:05:56;76.53;;;47.50;;
56893;SDS011;43392;50.078;13.704;2022-10-22T08:08:23;64.47;;;37.20;;
56893;SDS011;43392;50.078;13.704;2022-10-22T08:10:51;63.17;;;36.95;;
56893;SDS011;43392;50.078;13.704;2022-10-22T08:13:18;66.40;;;39.53;;
56893;SDS011;43392;50.078;13.704;2022-10-22T08:15:45;71.50;;;40.72;;
56893;SDS011;43392;50.078;13.704;2022-10-22T08:18:13;72.93;;;38.72;;
56893;SDS011;43392;50.078;13.704;2022-10-22T08:20:40;57.25;;;35.22;;
56893;SDS011;43392;50.078;13.704;2022-10-22T08:23:07;62.30;;;37.88;;
56893;SDS011;43392;50.078;13.704;2022-10-22T08:25:34;54.78;;;33.13;;
56893;SDS011;43392;50.078;13.704;2022-10-22T08:28:00;52.63;;;34.20;;
56893;SDS011;43392;50.078;13.704;2022-10-22T08:30:27;55.17;;;34.63;;
56893;SDS011;43392;50.078;13.704;2022-10-22T08:32:54;49.80;;;31.33;;
56893;SDS011;43392;50.078;13.704;2022-10-22T08:35:22;49.03;;;29.30;;
56893;SDS011;43392;50.078;13.704;2022-10-22T08:37:48;39.45;;;25.27;;
56893;SDS011;43392;50.078;13.704;2022-10-22T08:40:18;37.58;;;23.00;;
56893;SDS011;43392;50.078;13.704;2022-10-22T08:45:49;66.40;;;37.58;;
56893;SDS011;43392;50.078;13.704;2022-10-22T08:48:29;38.78;;;23.08;;
56893;SDS011;43392;50.078;13.704;2022-10-22T08:51:09;36.17;;;22.38;;
56893;SDS011;43392;50.078;13.704;2022-10-22T08:53:41;32.83;;;21.60;;
56893;SDS011;43392;50.078;13.704;2022-10-22T08:56:15;34.03;;;20.10;;
56893;SDS011;43392;50.078;13.704;2022-10-22T08:58:42;28.08;;;14.73;;
56893;SDS011;43392;50.078;13.704;2022-10-22T09:01:16;26.75;;;14.18;;
56893;SDS011;43392;50.078;13.704;2022-10-22T09:03:48;21.00;;;12.15;;
56893;SDS011;43392;50.078;13.704;2022-10-22T09:06:19;19.95;;;12.48;;
56893;SDS011;43392;50.078;13.704;2022-10-22T09:08:49;23.42;;;14.93;;
56893;SDS011;43392;50.078;13.704;2022-10-22T09:11:20;30.00;;;18.08;;
56893;SDS011;43392;50.078;13.704;2022-10-22T09:13:50;35.05;;;22.88;;
56893;SDS011;43392;50.078;13.704;2022-10-22T09:16:20;38.53;;;24.45;;
56893;SDS011;43392;50.078;13.704;2022-10-22T09:18:58;39.00;;;24.63;;
56893;SDS011;43392;50.078;13.704;2022-10-22T09:21:35;40.90;;;25.70;;
56893;SDS011;43392;50.078;13.704;2022-10-22T09:24:08;43.80;;;27.15;;
56893;SDS011;43392;50.078;13.704;2022-10-22T09:26:39;42.70;;;26.25;;
56893;SDS011;43392;50.078;13.704;2022-10-22T09:29:08;44.22;;;26.73;;
56893;SDS011;43392;50.078;13.704;2022-10-22T09:31:42;40.03;;;24.40;;
56893;SDS011;43392;50.078;13.704;2022-10-22T09:34:08;34.92;;;22.83;;
56893;SDS011;43392;50.078;13.704;2022-10-22T09:36:36;32.85;;;22.73;;
56893;SDS011;43392;50.078;13.704;2022-10-22T09:39:03;36.67;;;23.95;;
56893;SDS011;43392;50.078;13.704;2022-10-22T09:41:29;34.00;;;22.15;;
56893;SDS011;43392;50.078;13.704;2022-10-22T09:43:56;32.75;;;20.35;;
56893;SDS011;43392;50.078;13.704;2022-10-22T09:46:24;37.83;;;24.75;;
56893;SDS011;43392;50.078;13.704;2022-10-22T09:48:57;39.40;;;25.45;;
56893;SDS011;43392;50.078;13.704;2022-10-22T09:51:35;45.47;;;28.90;;
56893;SDS011;43392;50.078;13.704;2022-10-22T09:54:12;46.13;;;28.25;;
56893;SDS011;43392;50.078;13.704;2022-10-22T09:56:42;42.70;;;26.25;;
56893;SDS011;43392;50.078;13.704;2022-10-22T09:59:18;41.35;;;24.60;;
56893;SDS011;43392;50.078;13.704;2022-10-22T10:01:55;40.53;;;25.00;;
56893;SDS011;43392;50.078;13.704;2022-10-22T10:04:23;46.25;;;28.23;;
56893;SDS011;43392;50.078;13.704;2022-10-22T10:06:53;46.25;;;27.17;;
56893;SDS011;43392;50.078;13.704;2022-10-22T10:09:22;41.38;;;26.65;;
56893;SDS011;43392;50.078;13.704;2022-10-22T10:11:51;42.55;;;27.30;;
56893;SDS011;43392;50.078;13.704;2022-10-22T10:14:24;41.10;;;26.92;;
56893;SDS011;43392;50.078;13.704;2022-10-22T10:17:04;44.80;;;28.15;;
56893;SDS011;43392;50.078;13.704;2022-10-22T10:19:39;43.33;;;28.38;;
56893;SDS011;43392;50.078;13.704;2022-10-22T10:22:21;42.22;;;28.38;;
56893;SDS011;43392;50.078;13.704;2022-10-22T10:25:23;41.22;;;27.55;;
56893;SDS011;43392;50.078;13.704;2022-10-22T10:28:00;46.63;;;28.23;;
56893;SDS011;43392;50.078;13.704;2022-10-22T10:30:36;45.33;;;28.92;;
56893;SDS011;43392;50.078;13.704;2022-10-22T10:33:10;41.28;;;27.90;;
56893;SDS011;43392;50.078;13.704;2022-10-22T10:35:47;42.58;;;27.35;;
56893;SDS011;43392;50.078;13.704;2022-10-22T10:38:30;46.00;;;28.30;;
56893;SDS011;43392;50.078;13.704;2022-10-22T10:41:07;40.92;;;27.00;;
56893;SDS011;43392;50.078;13.704;2022-10-22T10:43:47;42.63;;;26.27;;
56893;SDS011;43392;50.078;13.704;2022-10-22T10:46:26;35.53;;;24.42;;
56893;SDS011;43392;50.078;13.704;2022-10-22T10:48:59;40.95;;;25.45;;
56893;SDS011;43392;50.078;13.704;2022-10-22T10:51:34;41.58;;;25.88;;
56893;SDS011;43392;50.078;13.704;2022-10-22T10:54:14;37.55;;;25.52;;
56893;SDS011;43392;50.078;13.704;2022-10-22T10:56:47;34.13;;;22.45;;
56893;SDS011;43392;50.078;13.704;2022-10-22T10:59:20;35.20;;;23.75;;
56893;SDS011;43392;50.078;13.704;2022-10-22T11:05:00;41.05;;;26.77;;
56893;SDS011;43392;50.078;13.704;2022-10-22T11:07:33;44.72;;;29.17;;
56893;SDS011;43392;50.078;13.704;2022-10-22T11:10:08;35.63;;;24.60;;
56893;SDS011;43392;50.078;13.704;2022-10-22T11:12:40;38.00;;;24.58;;
56893;SDS011;43392;50.078;13.704;2022-10-22T11:15:15;39.83;;;27.48;;
56893;SDS011;43392;50.078;13.704;2022-10-22T11:17:53;34.05;;;23.70;;
56893;SDS011;43392;50.078;13.704;2022-10-22T11:20:26;31.88;;;21.88;;
56893;SDS011;43392;50.078;13.704;2022-10-22T11:23:00;31.45;;;21.50;;
56893;SDS011;43392;50.078;13.704;2022-10-22T11:25:33;27.98;;;20.15;;
56893;SDS011;43392;50.078;13.704;2022-10-22T11:28:07;27.05;;;19.23;;
56893;SDS011;43392;50.078;13.704;2022-10-22T11:30:39;24.02;;;16.90;;
56893;SDS011;43392;50.078;13.704;2022-10-22T11:33:09;20.95;;;14.60;;
56893;SDS011;43392;50.078;13.704;2022-10-22T11:35:38;22.83;;;14.80;;
56893;SDS011;43392;50.078;13.704;2022-10-22T11:38:09;19.83;;;13.32;;
56893;SDS011;43392;50.078;13.704;2022-10-22T11:40:44;21.60;;;15.80;;
56893;SDS011;43392;50.078;13.704;2022-10-22T11:43:24;22.02;;;14.70;;
56893;SDS011;43392;50.078;13.704;2022-10-22T11:45:56;17.25;;;12.23;;
56893;SDS011;43392;50.078;13.704;2022-10-22T11:48:27;16.20;;;11.13;;
56893;SDS011;43392;50.078;13.704;2022-10-22T11:50:59;15.32;;;9.75;;
56893;SDS011;43392;50.078;13.704;2022-10-22T11:53:29;14.73;;;9.30;;
56893;SDS011;43392;50.078;13.704;2022-10-22T11:56:02;13.77;;;9.48;;
56893;SDS011;43392;50.078;13.704;2022-10-22T11:58:46;14.88;;;8.82;;
56893;SDS011;43392;50.078;13.704;2022-10-22T12:01:24;12.43;;;6.97;;
56893;SDS011;43392;50.078;13.704;2022-10-22T12:06:53;10.55;;;6.43;;
56893;SDS011;43392;50.078;13.704;2022-10-22T12:09:21;10.55;;;6.80;;
56893;SDS011;43392;50.078;13.704;2022-10-22T12:11:52;9.10;;;5.18;;
56893;SDS011;43392;50.078;13.704;2022-10-22T12:14:20;14.10;;;5.28;;
56893;SDS011;43392;50.078;13.704;2022-10-22T12:16:51;11.38;;;4.65;;
56893;SDS011;43392;50.078;13.704;2022-10-22T12:19:25;8.40;;;4.15;;
56893;SDS011;43392;50.078;13.704;2022-10-22T12:21:54;9.57;;;4.53;;
56893;SDS011;43392;50.078;13.704;2022-10-22T12:24:24;8.00;;;4.22;;
56893;SDS011;43392;50.078;13.704;2022-10-22T12:26:57;11.07;;;4.40;;
56893;SDS011;43392;50.078;13.704;2022-10-22T12:29:24;7.03;;;3.45;;
56893;SDS011;43392;50.078;13.704;2022-10-22T12:31:52;11.23;;;5.85;;
56893;SDS011;43392;50.078;13.704;2022-10-22T12:34:20;6.80;;;3.13;;
56893;SDS011;43392;50.078;13.704;2022-10-22T12:36:50;7.85;;;3.90;;
56893;SDS011;43392;50.078;13.704;2022-10-22T12:39:19;7.75;;;3.95;;
56893;SDS011;43392;50.078;13.704;2022-10-22T12:41:47;7.55;;;4.20;;
56893;SDS011;43392;50.078;13.704;2022-10-22T12:44:16;9.15;;;6.65;;
56893;SDS011;43392;50.078;13.704;2022-10-22T12:46:43;7.45;;;4.07;;
56893;SDS011;43392;50.078;13.704;2022-10-22T12:49:13;5.88;;;3.22;;
56893;SDS011;43392;50.078;13.704;2022-10-22T12:51:44;6.28;;;3.20;;
56893;SDS011;43392;50.078;13.704;2022-10-22T12:54:21;7.22;;;3.25;;
56893;SDS011;43392;50.078;13.704;2022-10-22T12:56:50;7.13;;;3.17;;
56893;SDS011;43392;50.078;13.704;2022-10-22T12:59:21;7.32;;;2.97;;
56893;SDS011;43392;50.078;13.704;2022-10-22T13:01:49;6.80;;;2.42;;
56893;SDS011;43392;50.078;13.704;2022-10-22T13:04:19;7.57;;;2.60;;
56893;SDS011;43392;50.078;13.704;2022-10-22T13:07:03;5.95;;;2.28;;
56893;SDS011;43392;50.078;13.704;2022-10-22T13:09:40;3.80;;;1.73;;
56893;SDS011;43392;50.078;13.704;2022-10-22T13:12:09;3.53;;;1.92;;
56893;SDS011;43392;50.078;13.704;2022-10-22T13:14:42;3.67;;;1.80;;
56893;SDS011;43392;50.078;13.704;2022-10-22T13:17:10;4.60;;;1.63;;
56893;SDS011;43392;50.078;13.704;2022-10-22T13:19:44;4.22;;;1.75;;
56893;SDS011;43392;50.078;13.704;2022-10-22T13:22:26;2.72;;;1.40;;
56893;SDS011;43392;50.078;13.704;2022-10-22T13:24:55;2.20;;;1.30;;
56893;SDS011;43392;50.078;13.704;2022-10-22T13:27:23;3.80;;;1.63;;
56893;SDS011;43392;50.078;13.704;2022-10-22T13:29:52;4.18;;;1.40;;
56893;SDS011;43392;50.078;13.704;2022-10-22T13:32:24;3.25;;;1.55;;
56893;SDS011;43392;50.078;13.704;2022-10-22T13:34:54;3.17;;;1.67;;
56893;SDS011;43392;50.078;13.704;2022-10-22T13:37:22;3.33;;;1.40;;
56893;SDS011;43392;50.078;13.704;2022-10-22T13:39:49;5.28;;;1.70;;
56893;SDS011;43392;50.078;13.704;2022-10-22T13:42:15;5.28;;;1.52;;
56893;SDS011;43392;50.078;13.704;2022-10-22T13:44:42;5.50;;;1.70;;
56893;SDS011;43392;50.078;13.704;2022-10-22T13:47:12;4.00;;;1.90;;
56893;SDS011;43392;50.078;13.704;2022-10-22T13:49:49;4.05;;;1.83;;
56893;SDS011;43392;50.078;13.704;2022-10-22T13:52:26;5.72;;;1.60;;
56893;SDS011;43392;50.078;13.704;2022-10-22T13:54:54;4.93;;;2.03;;
56893;SDS011;43392;50.078;13.704;2022-10-22T13:57:21;2.65;;;1.55;;
56893;SDS011;43392;50.078;13.704;2022-10-22T13:59:47;5.95;;;1.77;;
56893;SDS011;43392;50.078;13.704;2022-10-22T14:02:15;4.05;;;1.45;;
56893;SDS011;43392;50.078;13.704;2022-10-22T14:04:43;4.78;;;1.67;;
56893;SDS011;43392;50.078;13.704;2022-10-22T14:07:11;5.53;;;1.90;;
56893;SDS011;43392;50.078;13.704;2022-10-22T14:09:39;3.70;;;1.60;;
56893;SDS011;43392;50.078;13.704;2022-10-22T14:12:09;5.65;;;1.90;;
56893;SDS011;43392;50.078;13.704;2022-10-22T14:14:37;2.30;;;1.38;;
56893;SDS011;43392;50.078;13.704;2022-10-22T14:17:03;4.03;;;1.65;;
56893;SDS011;43392;50.078;13.704;2022-10-22T14:19:32;2.67;;;1.58;;
56893;SDS011;43392;50.078;13.704;2022-10-22T14:21:59;4.60;;;1.98;;
56893;SDS011;43392;50.078;13.704;2022-10-22T14:24:25;5.78;;;2.00;;
56893;SDS011;43392;50.078;13.704;2022-10-22T14:26:52;1.85;;;1.45;;
56893;SDS011;43392;50.078;13.704;2022-10-22T14:29:18;4.63;;;2.10;;
56893;SDS011;43392;50.078;13.704;2022-10-22T14:31:45;3.85;;;1.70;;
56893;SDS011;43392;50.078;13.704;2022-10-22T14:34:13;3.95;;;2.00;;
56893;SDS011;43392;50.078;13.704;2022-10-22T14:36:42;6.00;;;2.00;;